createdAt,value
2022-09-17T00:00:55.242Z,2.50
2022-09-17T00:03:23.051Z,2.10
2022-09-17T00:05:49.617Z,2.00
2022-09-17T00:08:16.210Z,2.03
2022-09-17T00:10:44.679Z,2.35
2022-09-17T00:13:11.990Z,1.85
2022-09-17T00:15:43.557Z,1.92
2022-09-17T00:18:11.246Z,2.73
2022-09-17T00:20:43.106Z,2.80
2022-09-17T00:23:11.126Z,2.25
2022-09-17T00:25:39.092Z,1.80
2022-09-17T00:28:05.893Z,2.03
2022-09-17T00:30:32.478Z,2.77
2022-09-17T00:32:59.255Z,2.70
2022-09-17T00:35:27.030Z,2.03
2022-09-17T00:37:53.660Z,1.88
2022-09-17T00:40:21.452Z,2.25
2022-09-17T00:42:49.755Z,2.20
2022-09-17T00:45:16.372Z,2.00
2022-09-17T00:47:47.544Z,2.10
2022-09-17T00:50:39.361Z,1.95
2022-09-17T00:53:15.378Z,1.77
2022-09-17T00:56:03.385Z,2.07
2022-09-17T00:58:31.266Z,1.83
2022-09-17T01:00:58.373Z,2.20
2022-09-17T01:03:25.018Z,2.22
2022-09-17T01:06:13.988Z,2.60
2022-09-17T01:09:03.356Z,2.67
2022-09-17T01:11:38.920Z,2.22
2022-09-17T01:14:35.747Z,2.00
2022-09-17T01:17:08.176Z,2.38
2022-09-17T01:19:59.431Z,2.10
2022-09-17T01:22:31.897Z,2.03
2022-09-17T01:25:07.804Z,1.67
2022-09-17T01:27:58.627Z,1.92
2022-09-17T01:30:38.996Z,2.22
2022-09-17T01:33:24.262Z,2.45
2022-09-17T01:36:09.411Z,1.90
2022-09-17T01:38:57.207Z,1.75
2022-09-17T01:41:40.531Z,1.63
2022-09-17T01:44:39.596Z,1.67
2022-09-17T01:47:15.711Z,1.80
2022-09-17T01:49:45.064Z,1.60
2022-09-17T01:52:15.250Z,1.40
2022-09-17T01:54:49.412Z,1.95
2022-09-17T01:57:37.936Z,1.45
2022-09-17T02:00:17.044Z,1.73
2022-09-17T02:03:02.281Z,2.53
2022-09-17T02:05:34.324Z,1.50
2022-09-17T02:08:11.528Z,1.65
2022-09-17T02:10:45.983Z,1.65
2022-09-17T02:13:33.144Z,1.95
2022-09-17T02:16:18.768Z,1.70
2022-09-17T02:19:19.466Z,1.55
2022-09-17T02:22:08.249Z,1.40
2022-09-17T02:25:06.519Z,1.58
2022-09-17T02:27:46.027Z,1.40
2022-09-17T02:30:14.363Z,1.23
2022-09-17T02:32:42.402Z,1.95
2022-09-17T02:35:10.804Z,1.65
2022-09-17T02:37:37.403Z,1.30
2022-09-17T02:40:05.883Z,1.27
2022-09-17T02:42:53.697Z,1.20
2022-09-17T02:45:35.260Z,1.77
2022-09-17T02:48:25.927Z,1.13
2022-09-17T02:51:13.803Z,1.60
2022-09-17T02:53:54.337Z,1.83
2022-09-17T02:56:33.970Z,1.43
2022-09-17T02:59:12.509Z,1.88
2022-09-17T03:01:52.233Z,1.55
2022-09-17T03:04:20.987Z,1.80
2022-09-17T03:06:48.034Z,1.60
2022-09-17T03:09:15.650Z,1.67
2022-09-17T03:11:42.624Z,1.33
2022-09-17T03:14:09.159Z,1.90
2022-09-17T03:16:35.751Z,1.63
2022-09-17T03:19:02.401Z,1.63
2022-09-17T03:21:29.072Z,1.70
2022-09-17T03:23:55.671Z,1.60
2022-09-17T03:26:22.229Z,1.40
2022-09-17T03:28:48.873Z,2.75
2022-09-17T03:31:15.462Z,1.85
2022-09-17T07:11:51.345Z,1.30
2022-09-17T07:14:21.059Z,1.20
2022-09-17T07:16:49.008Z,1.45
2022-09-17T07:19:24.477Z,1.38
2022-09-17T07:21:52.772Z,1.20
2022-09-17T07:27:16.236Z,1.40
2022-09-17T07:29:43.768Z,1.00
2022-09-17T07:32:15.347Z,1.38
2022-09-17T07:35:04.900Z,1.15
2022-09-17T07:37:37.699Z,1.27
2022-09-17T07:40:10.419Z,1.20
2022-09-17T07:42:39.967Z,1.23
2022-09-17T07:45:11.353Z,1.50
2022-09-17T07:48:02.333Z,1.00
2022-09-17T07:50:31.780Z,1.77
2022-09-17T07:53:13.047Z,1.30
2022-09-17T07:55:41.009Z,1.30
2022-09-17T07:58:07.889Z,1.08
2022-09-17T08:00:38.050Z,1.10
2022-09-17T08:03:04.780Z,1.10
2022-09-17T08:05:32.398Z,1.10
2022-09-17T08:07:58.943Z,1.10
2022-09-17T08:10:27.074Z,1.15
2022-09-17T08:12:59.263Z,1.15
2022-09-17T08:15:36.793Z,1.17
2022-09-17T08:21:10.370Z,1.30
2022-09-17T08:23:39.180Z,1.20
2022-09-17T08:32:41.319Z,1.43
2022-09-17T08:35:28.360Z,0.98
2022-09-17T08:41:00.729Z,1.00
2022-09-17T08:56:56.840Z,0.82
2022-09-17T09:03:47.058Z,1.00
2022-09-17T09:06:19.743Z,1.52
2022-09-17T09:09:12.721Z,1.10
2022-09-17T09:16:00.047Z,1.13
2022-09-17T09:29:07.735Z,1.48
2022-09-17T09:35:31.013Z,1.20
2022-09-17T09:38:06.334Z,1.05
2022-09-17T09:40:48.565Z,1.38
2022-09-17T09:43:22.046Z,1.10
2022-09-17T09:45:54.815Z,1.00
2022-09-17T09:48:42.759Z,1.57
2022-09-17T09:51:28.024Z,0.98
2022-09-17T09:54:01.684Z,1.10
2022-09-17T09:56:42.485Z,1.52
2022-09-17T09:59:11.992Z,1.60
2022-09-17T10:01:41.751Z,1.47
2022-09-17T10:04:28.775Z,1.25
2022-09-17T10:07:10.750Z,1.42
2022-09-17T10:09:39.375Z,1.30
2022-09-17T10:12:16.864Z,1.20
2022-09-17T10:14:45.332Z,1.00
2022-09-17T10:17:20.613Z,1.35
2022-09-17T10:20:11.940Z,1.17
2022-09-17T10:22:40.911Z,1.10
2022-09-17T10:25:31.780Z,1.17
2022-09-17T10:28:01.636Z,1.20
2022-09-17T10:30:28.508Z,1.40
2022-09-17T10:33:10.728Z,1.30
2022-09-17T10:35:37.382Z,1.15
2022-09-17T10:38:03.950Z,1.17
2022-09-17T10:40:32.392Z,1.43
2022-09-17T10:43:18.838Z,1.58
2022-09-17T10:45:56.505Z,1.48
2022-09-17T10:48:23.839Z,1.50
2022-09-17T10:50:56.304Z,1.40
2022-09-17T10:53:25.568Z,1.43
2022-09-17T10:56:07.343Z,1.60
2022-09-17T10:58:55.912Z,1.42
2022-09-17T11:01:34.548Z,1.45
2022-09-17T11:04:26.299Z,1.75
2022-09-17T11:07:17.009Z,1.40
2022-09-17T11:10:06.638Z,1.40
2022-09-17T11:12:58.758Z,1.70
2022-09-17T11:15:46.152Z,1.55
2022-09-17T11:18:26.486Z,2.58
2022-09-17T11:21:01.862Z,1.70
2022-09-17T11:24:06.551Z,1.83
2022-09-17T11:26:57.326Z,2.13
2022-09-17T11:29:50.098Z,1.85
2022-09-17T11:32:43.696Z,1.80
2022-09-17T11:35:16.867Z,1.60
2022-09-17T11:37:59.720Z,2.08
2022-09-17T11:40:50.477Z,1.95
2022-09-17T11:43:36.048Z,1.60
2022-09-17T11:46:25.863Z,1.55
2022-09-17T11:49:04.204Z,1.70
2022-09-17T11:51:39.932Z,2.10
2022-09-17T11:54:18.716Z,1.80
2022-09-17T11:56:52.164Z,1.92
2022-09-17T11:59:30.403Z,1.83
2022-09-17T12:02:02.377Z,2.37
2022-09-17T12:04:49.557Z,1.60
2022-09-17T12:07:36.928Z,1.70
2022-09-17T12:10:15.457Z,1.90
2022-09-17T12:12:54.144Z,1.50
2022-09-17T12:15:30.896Z,1.43
2022-09-17T12:18:30.403Z,1.98
2022-09-17T12:20:55.403Z,1.65
2022-09-17T12:23:41.748Z,1.98
2022-09-17T12:26:19.671Z,2.08
2022-09-17T12:29:34.239Z,1.50
2022-09-17T12:32:47.473Z,1.58
2022-09-17T12:35:52.679Z,1.50
2022-09-17T12:38:47.851Z,1.52
2022-09-17T12:41:39.157Z,1.67
2022-09-17T12:44:23.894Z,1.80
2022-09-17T12:47:00.248Z,1.98
2022-09-17T12:49:51.827Z,1.80
2022-09-17T12:52:42.452Z,1.58
2022-09-17T12:55:37.866Z,1.60
2022-09-17T12:58:26.484Z,2.40
2022-09-17T13:01:03.385Z,2.10
2022-09-17T13:03:40.696Z,2.13
2022-09-17T13:06:10.271Z,1.80
2022-09-17T13:09:05.264Z,1.38
2022-09-17T13:11:56.643Z,1.97
2022-09-17T13:14:48.395Z,1.80
2022-09-17T13:17:33.704Z,2.17
2022-09-17T13:20:23.712Z,1.85
2022-09-17T13:22:52.383Z,2.25
2022-09-17T13:25:21.624Z,2.30
2022-09-17T13:27:50.467Z,1.95
2022-09-17T13:30:18.879Z,2.30
2022-09-17T13:32:49.458Z,1.70
2022-09-17T13:35:15.985Z,1.80
2022-09-17T13:37:43.244Z,2.07
2022-09-17T13:40:34.172Z,1.85
2022-09-17T13:43:03.903Z,1.85
2022-09-17T13:45:33.629Z,1.80
2022-09-17T13:48:06.356Z,1.48
2022-09-17T13:50:35.367Z,1.30
2022-09-17T13:53:16.834Z,1.70
2022-09-17T13:55:54.626Z,1.30
2022-09-17T13:58:21.237Z,1.95
2022-09-17T14:00:55.284Z,1.70
2022-09-17T14:03:31.185Z,1.47
2022-09-17T14:06:19.346Z,1.48
2022-09-17T14:08:47.284Z,1.45
2022-09-17T14:11:22.815Z,1.88
2022-09-17T14:13:54.140Z,1.58
2022-09-17T14:16:38.540Z,1.63
2022-09-17T14:19:24.115Z,1.88
2022-09-17T14:22:02.491Z,1.70
2022-09-17T14:24:39.597Z,1.75
2022-09-17T14:27:17.955Z,1.70
2022-09-17T14:30:04.895Z,1.70
2022-09-17T14:32:39.421Z,1.55
2022-09-17T14:35:29.117Z,2.03
2022-09-17T14:37:59.995Z,1.75
2022-09-17T14:40:28.227Z,2.25
2022-09-17T14:42:57.305Z,1.93
2022-09-17T14:45:31.572Z,1.95
2022-09-17T14:48:17.232Z,2.38
2022-09-17T14:50:43.820Z,2.42
2022-09-17T14:53:19.210Z,2.25
2022-09-17T14:55:49.035Z,2.27
2022-09-17T14:58:36.166Z,2.13
2022-09-17T15:01:02.844Z,2.40
2022-09-17T15:03:29.371Z,2.33
2022-09-17T15:05:56.118Z,2.38
2022-09-17T15:08:25.607Z,2.30
2022-09-17T15:11:01.443Z,2.47
2022-09-17T15:13:30.027Z,2.20
2022-09-17T15:16:03.107Z,1.83
2022-09-17T15:18:38.160Z,2.10
2022-09-17T15:21:15.377Z,1.80
2022-09-17T15:23:42.973Z,1.88
2022-09-17T15:26:11.200Z,2.05
2022-09-17T15:28:42.704Z,2.13
2022-09-17T15:31:19.638Z,2.05
2022-09-17T15:44:39.188Z,1.75
2022-09-17T15:51:14.957Z,2.00
2022-09-17T15:53:52.887Z,1.65
2022-09-17T15:56:29.277Z,1.80
2022-09-17T15:59:23.500Z,2.17
2022-09-17T16:01:53.100Z,1.98
2022-09-17T16:04:25.650Z,2.50
2022-09-17T16:06:56.951Z,2.03
2022-09-17T16:09:37.286Z,2.78
2022-09-17T16:12:05.282Z,2.92
2022-09-17T16:17:29.699Z,2.17
2022-09-17T16:19:56.750Z,1.70
2022-09-17T16:22:23.740Z,2.03
2022-09-17T16:24:50.366Z,1.77
2022-09-17T16:27:22.351Z,2.03
2022-09-17T16:29:50.944Z,1.97
2022-09-17T16:32:17.606Z,1.70
2022-09-17T16:37:25.769Z,1.65
2022-09-17T16:39:53.073Z,1.70
2022-09-17T16:42:34.778Z,1.60
2022-09-17T16:45:06.567Z,1.90
2022-09-17T16:47:37.382Z,1.70
2022-09-17T16:50:10.624Z,1.50
2022-09-17T16:52:37.376Z,1.13
2022-09-17T16:55:05.246Z,1.30
2022-09-17T16:57:32.408Z,1.45
2022-09-17T16:59:59.106Z,1.40
2022-09-17T17:02:28.221Z,1.58
2022-09-17T17:04:55.009Z,1.35
2022-09-17T17:07:21.663Z,1.87
2022-09-17T17:09:48.401Z,1.20
2022-09-17T17:12:15.067Z,1.10
2022-09-17T17:14:41.736Z,1.30
2022-09-17T17:17:14.469Z,1.15
2022-09-17T17:19:41.181Z,1.33
2022-09-17T17:22:08.629Z,1.13
2022-09-17T17:24:35.303Z,1.40
2022-09-17T17:27:02.044Z,1.25
2022-09-17T17:29:28.616Z,1.40
2022-09-17T17:31:55.254Z,1.53
2022-09-17T17:34:22.397Z,1.30
2022-09-17T17:36:50.064Z,1.13
2022-09-17T17:39:16.900Z,1.20
2022-09-17T17:41:43.529Z,1.45
2022-09-17T17:44:13.483Z,1.20
2022-09-17T17:46:43.546Z,1.15
2022-09-17T17:49:11.177Z,1.23
2022-09-17T17:51:57.314Z,1.30
2022-09-17T17:54:32.336Z,1.30
2022-09-17T17:56:59.569Z,1.47
2022-09-17T17:59:43.993Z,1.10
2022-09-17T18:02:17.280Z,1.20
2022-09-17T18:04:44.058Z,1.30
2022-09-17T18:07:10.684Z,1.30
2022-09-17T18:09:39.645Z,1.47
2022-09-17T18:18:29.058Z,1.25
2022-09-17T18:21:05.549Z,1.23
2022-09-17T18:23:34.725Z,1.40
2022-09-17T18:26:02.091Z,1.10
2022-09-17T18:28:30.439Z,1.10
2022-09-17T18:31:03.610Z,1.27
2022-09-17T18:33:30.250Z,1.40
2022-09-17T18:36:02.033Z,1.10
2022-09-17T18:38:29.710Z,1.25
2022-09-17T18:41:06.247Z,1.40
2022-09-17T18:46:36.411Z,1.15
2022-09-17T18:49:04.551Z,1.63
2022-09-17T18:51:31.446Z,1.13
2022-09-17T18:53:59.241Z,1.08
2022-09-17T18:56:36.000Z,1.40
2022-09-17T18:59:07.906Z,1.20
2022-09-17T19:01:40.658Z,1.00
2022-09-17T19:04:07.736Z,1.52
2022-09-17T19:06:34.690Z,1.30
2022-09-17T19:09:02.306Z,1.23
2022-09-17T19:11:29.481Z,1.33
2022-09-17T19:13:56.437Z,1.07
2022-09-17T19:16:23.313Z,1.23
2022-09-17T19:18:50.187Z,1.30
2022-09-17T19:21:18.974Z,1.10
2022-09-17T19:23:47.878Z,1.30
2022-09-17T19:26:25.994Z,1.20
2022-09-17T19:29:02.882Z,1.63
2022-09-17T19:31:29.559Z,1.52
2022-09-17T19:34:02.647Z,1.42
2022-09-17T19:36:35.645Z,1.50
2022-09-17T19:39:02.493Z,1.70
2022-09-17T19:41:31.340Z,1.70
2022-09-17T19:43:58.027Z,2.00
2022-09-17T19:46:26.240Z,2.20
2022-09-17T19:48:55.756Z,1.77
2022-09-17T19:51:25.346Z,1.77
2022-09-17T19:53:52.655Z,1.77
2022-09-17T19:56:21.981Z,1.67
2022-09-17T19:58:48.899Z,1.85
2022-09-17T20:01:16.214Z,1.80
2022-09-17T20:03:46.373Z,1.80
2022-09-17T20:06:15.346Z,1.50
2022-09-17T20:08:47.128Z,1.60
2022-09-17T20:11:16.634Z,1.80
2022-09-17T20:13:43.581Z,1.42
2022-09-17T20:16:13.188Z,1.70
2022-09-17T20:18:40.261Z,1.70
2022-09-17T20:21:15.769Z,1.88
2022-09-17T20:23:43.291Z,1.63
2022-09-17T20:26:36.061Z,1.70
2022-09-17T20:29:03.237Z,1.53
2022-09-17T20:31:31.634Z,2.00
2022-09-17T20:34:00.647Z,1.65
2022-09-17T20:36:31.026Z,1.65
2022-09-17T20:39:21.886Z,1.55
2022-09-17T20:41:46.544Z,1.20
2022-09-17T20:44:13.443Z,1.80
2022-09-17T20:46:40.934Z,1.58
2022-09-17T20:49:13.071Z,1.90
2022-09-17T20:51:48.646Z,1.77
2022-09-17T20:54:16.672Z,1.50
2022-09-17T20:57:00.172Z,1.75
2022-09-17T20:59:31.855Z,1.50
2022-09-17T21:01:58.548Z,1.63
2022-09-17T21:04:27.211Z,1.52
2022-09-17T21:06:54.204Z,1.80
2022-09-17T21:09:20.876Z,1.70
2022-09-17T21:11:48.415Z,1.30
2022-09-17T21:14:15.791Z,1.90
2022-09-17T21:16:43.289Z,1.60
2022-09-17T21:19:12.265Z,1.50
2022-09-17T21:21:40.454Z,1.63
2022-09-17T21:24:09.892Z,1.75
2022-09-17T21:26:36.726Z,2.08
2022-09-17T21:29:03.770Z,1.60
2022-09-17T21:31:33.446Z,1.53
2022-09-17T21:34:03.031Z,1.70
2022-09-17T21:36:31.724Z,2.03
2022-09-17T21:39:01.210Z,1.70
2022-09-17T21:41:28.363Z,1.98
2022-09-17T21:44:07.496Z,1.80
2022-09-17T21:49:28.037Z,2.13
2022-09-17T21:52:22.253Z,2.33
2022-09-17T21:54:49.034Z,1.92
2022-09-17T21:57:19.152Z,2.60
2022-09-17T22:00:13.850Z,2.50
2022-09-17T22:02:40.568Z,2.50
2022-09-17T22:05:08.168Z,2.45
2022-09-17T22:07:34.929Z,2.67
2022-09-17T22:10:01.616Z,2.37
2022-09-17T22:12:28.184Z,2.80
2022-09-17T22:14:56.501Z,2.78
2022-09-17T22:17:38.139Z,2.55
2022-09-17T22:21:01.620Z,2.67
2022-09-17T22:23:28.216Z,2.70
2022-09-17T22:26:05.120Z,2.20
2022-09-17T22:28:31.953Z,2.35
2022-09-17T22:31:02.813Z,2.40
2022-09-17T22:33:38.020Z,2.85
2022-09-17T22:36:06.281Z,2.20
2022-09-17T22:38:33.121Z,2.65
2022-09-17T22:41:19.384Z,2.88
2022-09-17T22:43:46.548Z,1.80
2022-09-17T22:46:18.234Z,2.47
2022-09-17T22:51:52.857Z,2.55
2022-09-17T22:54:32.152Z,2.63
2022-09-17T22:56:58.779Z,2.10
2022-09-17T22:59:25.402Z,1.92
2022-09-17T23:01:52.031Z,2.17
2022-09-17T23:04:18.627Z,2.08
2022-09-17T23:06:45.203Z,2.10
2022-09-17T23:09:13.612Z,1.85
2022-09-17T23:11:40.391Z,1.77
2022-09-17T23:14:25.462Z,2.00
2022-09-17T23:20:33.542Z,1.80
2022-09-17T23:23:00.625Z,1.98
2022-09-17T23:25:27.896Z,2.05
2022-09-17T23:27:58.271Z,2.23
2022-09-17T23:30:28.559Z,1.77
2022-09-17T23:32:56.194Z,1.95
2022-09-17T23:42:40.158Z,2.07
2022-09-17T23:45:07.439Z,1.80
2022-09-17T23:47:34.067Z,1.60
2022-09-17T23:50:00.608Z,1.85
2022-09-17T23:52:27.146Z,2.17
2022-09-17T23:54:58.194Z,1.80
2022-09-17T23:57:28.927Z,2.58
2022-09-17T23:59:55.673Z,1.92
